createdAt,value
2023-05-09T00:01:03.484Z,16.56
2023-05-09T00:06:16.460Z,16.56
2023-05-09T00:11:24.927Z,16.38
2023-05-09T00:16:34.746Z,16.38
2023-05-09T00:21:45.067Z,16.31
2023-05-09T00:26:55.499Z,16.19
2023-05-09T00:32:04.017Z,16.19
2023-05-09T00:37:16.918Z,16.19
2023-05-09T00:42:26.703Z,16.12
2023-05-09T00:47:36.646Z,16.12
2023-05-09T00:52:44.927Z,15.94
2023-05-09T00:57:53.412Z,15.88
2023-05-09T01:03:39.149Z,15.94
2023-05-09T01:08:48.761Z,15.75
2023-05-09T01:13:58.520Z,15.69
2023-05-09T01:19:06.999Z,15.69
2023-05-09T01:24:16.787Z,15.75
2023-05-09T01:29:27.157Z,15.62
2023-05-09T01:34:38.839Z,15.56
2023-05-09T01:39:47.979Z,15.62
2023-05-09T01:44:57.086Z,15.56
2023-05-09T01:50:07.495Z,15.56
2023-05-09T01:55:17.238Z,15.44
2023-05-09T02:00:26.362Z,15.44
2023-05-09T02:05:36.143Z,15.19
2023-05-09T02:10:45.295Z,15.25
2023-05-09T02:15:53.758Z,15.12
2023-05-09T02:21:03.542Z,15.25
2023-05-09T02:26:12.598Z,15.12
2023-05-09T02:31:22.444Z,15.31
2023-05-09T02:36:32.111Z,15.31
2023-05-09T02:41:40.612Z,15.31
2023-05-09T02:46:50.356Z,15.31
2023-05-09T02:52:01.447Z,15.25
2023-05-09T02:57:10.538Z,15.19
2023-05-09T03:02:21.036Z,15.19
2023-05-09T03:07:29.396Z,15.25
2023-05-09T03:12:39.215Z,15.31
2023-05-09T04:04:18.680Z,15.38
2023-05-09T04:09:29.188Z,15.44
2023-05-09T04:14:38.840Z,15.5
2023-05-09T04:19:49.239Z,15.44
2023-05-09T04:24:59.640Z,15.5
2023-05-09T04:30:10.050Z,15.56
2023-05-09T04:35:21.041Z,15.62
2023-05-09T04:40:28.914Z,15.69
2023-05-09T04:45:39.343Z,15.75
2023-05-09T04:50:47.804Z,15.81
2023-05-09T04:55:58.856Z,15.81
2023-05-09T05:01:07.338Z,15.88
2023-05-09T05:06:17.087Z,16.06
2023-05-09T05:11:26.859Z,15.69
2023-05-09T05:16:35.527Z,15.94
2023-05-09T05:21:45.096Z,15.94
2023-05-09T05:26:53.563Z,15.88
2023-05-09T05:32:02.687Z,15.88
2023-05-09T05:37:12.479Z,16
2023-05-09T05:42:20.917Z,16
2023-05-09T05:47:30.743Z,16.06
2023-05-09T05:52:39.834Z,15.88
2023-05-09T05:57:48.926Z,15.88
2023-05-09T06:02:58.822Z,16.06
2023-05-09T06:08:07.800Z,16.06
2023-05-09T06:13:17.640Z,16.25
2023-05-09T06:18:26.688Z,16.5
2023-05-09T06:23:35.795Z,16.56
2023-05-09T06:28:44.314Z,16.5
2023-05-09T06:33:54.034Z,16.56
2023-05-09T06:39:03.818Z,16.94
2023-05-09T06:44:13.561Z,17.12
2023-05-09T06:49:22.679Z,17.25
2023-05-09T06:54:31.838Z,17.88
2023-05-09T06:59:40.929Z,18.12
2023-05-09T07:04:50.754Z,17.81
2023-05-09T07:10:12.185Z,17.81
2023-05-09T07:56:26.357Z,18.81
2023-05-09T08:01:35.596Z,18.81
2023-05-09T08:06:43.980Z,19.12
2023-05-09T08:11:53.719Z,19.06
2023-05-09T08:17:02.842Z,18.88
2023-05-09T08:22:12.608Z,19.06
2023-05-09T08:27:22.388Z,19.44
2023-05-09T08:32:31.578Z,19.31
2023-05-09T08:37:41.260Z,19.19
2023-05-09T08:42:49.720Z,19.12
2023-05-09T08:47:58.244Z,19.25
2023-05-09T08:53:07.337Z,19.19
2023-05-09T08:58:17.081Z,19.31
2023-05-09T09:03:27.515Z,19.5
2023-05-09T09:08:35.974Z,19.56
2023-05-09T09:13:45.101Z,19.81
2023-05-09T09:18:53.570Z,19.81
2023-05-09T09:24:02.059Z,20.06
2023-05-09T09:29:10.524Z,20.62
2023-05-09T09:34:20.316Z,20.75
2023-05-09T09:39:29.404Z,20.81
2023-05-09T09:44:39.162Z,21.12
2023-05-09T09:49:48.289Z,21
2023-05-09T09:54:58.062Z,20.81
2023-05-09T10:00:06.541Z,21.06
2023-05-09T10:46:28.662Z,21.56
2023-05-09T10:51:38.358Z,21.62
2023-05-09T10:56:47.475Z,21.56
2023-05-09T11:43:10.824Z,22.06
2023-05-09T11:48:19.334Z,22.31
2023-05-09T11:53:27.804Z,22.12
2023-05-09T11:58:36.278Z,21.69
2023-05-09T12:03:45.803Z,21.56
2023-05-09T12:08:54.696Z,21.25
2023-05-09T12:14:04.939Z,21.19
2023-05-09T12:19:14.036Z,21.06
2023-05-09T12:41:37.305Z,21.38
2023-05-09T12:46:27.445Z,21.31
2023-05-09T12:51:36.436Z,21.69
2023-05-09T12:56:48.119Z,21.94
2023-05-09T13:01:57.349Z,21.75
2023-05-09T13:07:06.359Z,21.94
2023-05-09T13:12:16.128Z,21.88
2023-05-09T13:17:25.945Z,21.88
2023-05-09T13:22:33.720Z,21.94
2023-05-09T13:27:42.196Z,21.88
2023-05-09T13:32:51.389Z,21.94
2023-05-09T13:37:59.801Z,21.81
2023-05-09T13:43:08.278Z,21.56
2023-05-09T13:48:16.770Z,21.81
2023-05-09T13:53:25.880Z,21.94
2023-05-09T13:58:35.656Z,21.81
2023-05-09T14:03:45.449Z,21.5
2023-05-09T14:08:53.879Z,21.06
2023-05-09T14:14:02.991Z,20.56
2023-05-09T14:19:13.402Z,20.31
2023-05-09T14:24:22.518Z,20
2023-05-09T14:29:31.028Z,19.94
2023-05-09T14:34:40.758Z,19.56
2023-05-09T14:39:51.166Z,19.44
2023-05-09T14:45:00.966Z,19
2023-05-09T15:31:27.863Z,18.31
2023-05-09T15:36:37.289Z,18.19
2023-05-09T15:41:45.930Z,17.38
2023-05-09T15:46:55.061Z,17.69
2023-05-09T16:33:17.883Z,17.12
2023-05-09T16:38:26.603Z,16.56
2023-05-09T16:43:36.148Z,16.56
2023-05-09T16:48:45.483Z,16.75
2023-05-09T16:53:56.212Z,16.88
2023-05-09T16:59:03.166Z,16.75
2023-05-09T17:04:12.213Z,16.69
2023-05-09T17:09:22.041Z,16.62
2023-05-09T17:14:30.808Z,16.62
2023-05-09T17:19:40.935Z,16.69
2023-05-09T17:24:51.248Z,16.69
2023-05-09T17:30:01.062Z,16.69
2023-05-09T17:35:10.673Z,16.56
2023-05-09T17:40:20.059Z,16.56
2023-05-09T17:45:28.132Z,16.69
2023-05-09T17:50:36.781Z,16.75
2023-05-09T17:55:45.509Z,16.69
2023-05-09T18:00:54.334Z,16.62
2023-05-09T18:06:04.805Z,16.62
2023-05-09T18:11:14.731Z,16.62
2023-05-09T18:16:23.264Z,16.75
2023-05-09T18:21:32.089Z,16.69
2023-05-09T18:26:42.003Z,16.62
2023-05-09T18:31:51.600Z,16.31
2023-05-09T18:37:00.418Z,16.31
2023-05-09T18:42:08.916Z,16.25
2023-05-09T18:47:18.394Z,16.19
2023-05-09T18:52:27.309Z,16.12
2023-05-09T18:57:36.205Z,16.06
2023-05-09T19:02:46.701Z,16.06
2023-05-09T19:07:54.928Z,15.88
2023-05-09T19:13:05.452Z,16.06
2023-05-09T19:18:14.281Z,15.94
2023-05-09T19:23:23.701Z,15.88
2023-05-09T19:28:31.357Z,15.94
2023-05-09T20:14:52.390Z,15.38
2023-05-09T20:20:02.048Z,15.44
2023-05-09T20:25:10.258Z,15.38
2023-05-09T20:30:19.657Z,15.25
2023-05-09T20:35:29.321Z,15.38
2023-05-09T20:40:37.534Z,15.19
2023-05-09T20:45:47.499Z,15.19
2023-05-09T20:50:57.275Z,15.19
2023-05-09T20:56:07.149Z,15.25
2023-05-09T21:01:16.353Z,15.19
2023-05-09T21:06:26.053Z,15.19
2023-05-09T21:11:34.506Z,15.12
2023-05-09T21:16:43.884Z,15
2023-05-09T21:21:53.221Z,15.12
2023-05-09T21:27:03.720Z,15
2023-05-09T21:32:13.564Z,14.94
2023-05-09T21:37:22.768Z,15
2023-05-09T21:42:32.450Z,14.88
2023-05-09T21:47:41.124Z,14.94
2023-05-09T21:52:48.663Z,14.75
2023-05-09T21:57:57.851Z,14.88
2023-05-09T22:03:05.562Z,14.81
2023-05-09T22:08:15.589Z,14.75
2023-05-09T22:13:24.235Z,14.56
2023-05-09T22:18:32.349Z,14.56
2023-05-09T22:23:42.036Z,14.62
2023-05-09T22:28:51.530Z,14.62
2023-05-09T22:34:01.344Z,14.5
2023-05-09T22:39:11.467Z,14.44
2023-05-09T22:44:20.018Z,14.25
2023-05-09T22:49:29.821Z,14.31
2023-05-09T22:54:38.198Z,14.31
2023-05-09T22:59:47.410Z,14.25
2023-05-09T23:04:57.075Z,14.25
